UIO weather

Mariscal Sucre International Airport
Quito, Pichincha Province, Ecuador

Public forecast

Using degrees Celsius for public forecast. Weather courtesy of forecast.io.

Current aviation weather report (METAR) for Mariscal Sucre International Airport

Retrieved 2019/12/16 04:00 UTC (38 minutes ago):

SEQM 160400Z 07005KT 9999 FEW030 12/11 Q1027 NOSIG RMK A3033

Aviation forecast (TAF) for Mariscal Sucre International Airport

Forecast is more than 6 hours old.

Retrieved 2019/12/15 18:32 UTC (10 hours ago):

TAF SEQM 151630Z 1518/1618 36012KT 9999 SCT030 BKN300 TEMPO 1520/1522 SHRA BKN030 SCT300 BECMG 1600/1602 03004KT FEW005 BKN020 BECMG 1605/1606 4000 BCFG SCT004 BKN016 FM161300 VRB03KT 9999 FEW026 BKN200 TX24/1519Z TN11/1611Z